Time;durP1;ratioP1;P1;durP2;ratioP2;P2;SDS_P1;SDS_P2;PMS_P1;PMS_P2;Temp;Humidity;BMP_temperature;BMP_pressure;BME280_temperature;BME280_humidity;BME280_pressure;Samples;Min_cycle;Max_cycle;Signal;HPM_P1;HPM_P2
2021/11/25 00:00:19;;;;;;;17.80;10.37;;;6.60;58.50;;;;;;5029689;28;21003;-48
2021/11/25 00:02:45;;;;;;;16.30;10.87;;;6.60;58.50;;;;;;5030881;28;20199;-49
2021/11/25 00:05:11;;;;;;;17.97;10.13;;;6.70;58.70;;;;;;5030323;28;20479;-47
2021/11/25 00:07:37;;;;;;;16.97;10.83;;;6.90;58.00;;;;;;5024973;28;20436;-48
2021/11/25 00:10:05;;;;;;;14.10;10.00;;;6.90;57.60;;;;;;5028507;28;20193;-47
2021/11/25 00:12:31;;;;;;;18.73;10.63;;;6.90;57.80;;;;;;5025973;28;20447;-46
2021/11/25 00:14:56;;;;;;;14.73;10.73;;;6.60;58.10;;;;;;5025262;28;20916;-48
2021/11/25 00:17:22;;;;;;;14.63;9.53;;;6.60;58.70;;;;;;5024364;28;20839;-47
2021/11/25 00:19:48;;;;;;;14.23;9.90;;;6.60;58.50;;;;;;5026373;28;20663;-48
2021/11/25 00:22:14;;;;;;;15.67;10.43;;;6.60;58.50;;;;;;5022220;28;20600;-48
2021/11/25 00:24:40;;;;;;;17.63;11.53;;;6.50;58.60;;;;;;5028570;28;20562;-49
2021/11/25 00:27:05;;;;;;;18.17;11.93;;;6.50;58.90;;;;;;5027537;28;20221;-48
2021/11/25 00:29:31;;;;;;;14.80;10.13;;;6.50;58.80;;;;;;5033145;28;20193;-47
2021/11/25 00:31:57;;;;;;;15.10;9.60;;;6.80;58.50;;;;;;5027529;28;20211;-50
2021/11/25 00:34:22;;;;;;;16.50;10.37;;;6.80;58.50;;;;;;5028097;28;20427;-51
2021/11/25 00:36:48;;;;;;;15.80;10.20;;;7.00;58.00;;;;;;5029525;28;20201;-47
2021/11/25 00:39:14;;;;;;;18.40;10.33;;;7.10;57.70;;;;;;5026412;28;20209;-49
2021/11/25 00:41:42;;;;;;;16.53;10.30;;;7.10;57.40;;;;;;5029484;28;20200;-48
2021/11/25 00:44:07;;;;;;;17.00;11.20;;;7.10;57.50;;;;;;5031515;28;20229;-48
2021/11/25 00:46:33;;;;;;;16.90;10.00;;;7.00;57.70;;;;;;5027953;28;20950;-47
2021/11/25 00:48:59;;;;;;;17.63;10.77;;;7.00;57.60;;;;;;5029132;28;20271;-47
2021/11/25 00:51:25;;;;;;;12.33;10.00;;;6.90;58.00;;;;;;5029145;28;20193;-48
2021/11/25 00:53:50;;;;;;;15.07;9.90;;;6.80;58.10;;;;;;5032443;28;20236;-48
2021/11/25 00:56:16;;;;;;;15.60;10.03;;;6.90;58.20;;;;;;5028276;28;20479;-47
2021/11/25 00:58:42;;;;;;;16.80;10.00;;;6.90;57.90;;;;;;5030669;28;20189;-48
2021/11/25 01:01:07;;;;;;;19.43;10.87;;;7.00;57.80;;;;;;5029318;28;20615;-48
2021/11/25 01:03:33;;;;;;;17.80;10.40;;;6.90;57.80;;;;;;5028278;28;20193;-49
2021/11/25 01:05:59;;;;;;;13.00;9.40;;;6.70;58.10;;;;;;5031435;28;20634;-47
2021/11/25 01:08:24;;;;;;;13.90;10.40;;;6.60;58.40;;;;;;5031044;28;20193;-46
2021/11/25 01:10:50;;;;;;;17.27;11.20;;;6.70;59.00;;;;;;5028018;28;20194;-48
2021/11/25 01:13:16;;;;;;;16.53;10.63;;;6.70;58.50;;;;;;5029575;28;20195;-47
2021/11/25 01:15:42;;;;;;;13.63;10.47;;;6.60;58.30;;;;;;5023384;28;20281;-51
2021/11/25 01:18:10;;;;;;;19.43;10.53;;;6.40;59.00;;;;;;5021426;28;20245;-49
2021/11/25 01:20:37;;;;;;;15.83;10.30;;;6.40;59.10;;;;;;5023957;28;20554;-50
2021/11/25 01:23:08;;;;;;;15.80;10.63;;;6.60;58.80;;;;;;5028260;28;20533;-47
2021/11/25 01:25:35;;;;;;;16.67;10.17;;;6.70;58.60;;;;;;5025004;28;20490;-49
2021/11/25 01:28:01;;;;;;;15.67;10.20;;;6.80;58.40;;;;;;5023318;28;20481;-47
2021/11/25 01:30:27;;;;;;;15.07;10.93;;;6.70;58.80;;;;;;5023727;28;21165;-49
2021/11/25 01:32:52;;;;;;;16.47;11.40;;;6.70;58.30;;;;;;5023951;28;20432;-50
2021/11/25 01:35:18;;;;;;;20.10;11.07;;;6.50;58.70;;;;;;5024063;28;20574;-49
2021/11/25 01:37:44;;;;;;;16.00;9.90;;;6.60;58.90;;;;;;5022772;28;21672;-47
2021/11/25 01:40:13;;;;;;;16.30;9.87;;;6.60;58.60;;;;;;5024025;28;20185;-48
2021/11/25 01:42:42;;;;;;;13.40;10.13;;;6.40;58.90;;;;;;5024542;28;20197;-49
2021/11/25 01:45:10;;;;;;;16.17;10.23;;;6.30;59.30;;;;;;5021459;28;21010;-48
2021/11/25 01:47:39;;;;;;;16.13;10.40;;;6.30;59.70;;;;;;5023391;28;20440;-48
2021/11/25 01:50:05;;;;;;;14.50;10.00;;;6.50;59.50;;;;;;5022026;28;20436;-46
2021/11/25 01:52:31;;;;;;;14.77;10.00;;;6.50;59.10;;;;;;5025194;28;21843;-50
2021/11/25 01:54:56;;;;;;;17.60;12.67;;;6.60;59.20;;;;;;5027562;28;20719;-48
2021/11/25 01:57:22;;;;;;;15.90;10.47;;;6.60;59.10;;;;;;5022271;28;20648;-50
2021/11/25 01:59:48;;;;;;;17.40;11.00;;;6.80;58.70;;;;;;5023663;28;20193;-49
2021/11/25 02:02:14;;;;;;;14.83;10.40;;;6.90;58.30;;;;;;5018743;28;20193;-47
2021/11/25 02:04:40;;;;;;;19.33;10.47;;;6.80;58.20;;;;;;5028344;28;20484;-48
2021/11/25 02:07:05;;;;;;;15.03;9.90;;;6.80;58.40;;;;;;5029510;28;20558;-46
2021/11/25 02:09:31;;;;;;;16.30;10.57;;;6.80;58.50;;;;;;5027008;28;20451;-46
2021/11/25 02:11:57;;;;;;;16.30;10.80;;;6.70;58.60;;;;;;5027303;28;20270;-46
2021/11/25 02:14:23;;;;;;;16.87;10.10;;;6.60;58.70;;;;;;5030690;28;20281;-49
2021/11/25 02:16:50;;;;;;;18.03;11.00;;;6.70;59.00;;;;;;5029775;28;20523;-47
2021/11/25 02:19:17;;;;;;;16.00;11.63;;;6.50;59.40;;;;;;5028629;28;20284;-48
2021/11/25 02:21:43;;;;;;;16.33;10.90;;;6.60;59.20;;;;;;5026197;28;20447;-47
2021/11/25 02:24:09;;;;;;;18.33;11.10;;;6.80;59.00;;;;;;5023628;28;20530;-51
2021/11/25 02:26:35;;;;;;;19.83;11.63;;;6.90;59.20;;;;;;5029220;28;20458;-46
2021/11/25 02:29:02;;;;;;;20.60;10.37;;;7.00;58.30;;;;;;5027303;28;20535;-51
2021/11/25 02:31:27;;;;;;;19.60;11.00;;;7.10;57.90;;;;;;5025612;28;20649;-48
2021/11/25 02:33:53;;;;;;;16.80;11.03;;;7.20;57.80;;;;;;5026484;28;20452;-47
2021/11/25 02:36:19;;;;;;;18.47;12.17;;;7.30;57.80;;;;;;5022795;28;20687;-51
2021/11/25 02:38:45;;;;;;;14.70;10.00;;;7.30;57.40;;;;;;5022820;28;20217;-49
2021/11/25 02:41:10;;;;;;;13.90;10.40;;;7.40;57.20;;;;;;5029309;28;20440;-49
2021/11/25 02:43:36;;;;;;;16.07;11.33;;;7.30;57.00;;;;;;5023588;28;20603;-47
2021/11/25 02:46:14;;;;;;;18.50;10.83;;;7.40;57.20;;;;;;5024365;28;20185;-51
2021/11/25 02:48:42;;;;;;;17.50;11.27;;;7.50;57.00;;;;;;5029139;28;20494;-46
2021/11/25 02:51:09;;;;;;;15.13;10.43;;;7.50;57.10;;;;;;5023950;28;20447;-47
2021/11/25 02:53:36;;;;;;;17.20;11.70;;;7.60;56.90;;;;;;5027868;28;20447;-46
2021/11/25 02:56:05;;;;;;;15.97;11.07;;;7.70;56.70;;;;;;5028263;28;20448;-52
2021/11/25 02:58:31;;;;;;;15.83;10.07;;;7.70;56.50;;;;;;5025010;28;20444;-49
2021/11/25 03:01:00;;;;;;;16.13;10.90;;;7.60;56.70;;;;;;5023135;28;20502;-47
2021/11/25 03:03:26;;;;;;;15.80;10.00;;;7.60;56.70;;;;;;5025459;28;20500;-51
2021/11/25 03:05:52;;;;;;;19.93;12.50;;;7.70;56.60;;;;;;5031081;28;20574;-47
2021/11/25 03:08:20;;;;;;;16.13;11.43;;;7.60;56.50;;;;;;5026889;28;20442;-46
2021/11/25 03:10:52;;;;;;;15.80;10.53;;;7.60;56.70;;;;;;5030434;28;20198;-47
2021/11/25 03:13:22;;;;;;;15.57;11.10;;;7.70;56.80;;;;;;5027127;28;20440;-47
2021/11/25 03:15:47;;;;;;;15.80;11.30;;;7.80;56.50;;;;;;5023054;28;20447;-47
2021/11/25 03:18:14;;;;;;;15.27;11.17;;;7.80;56.50;;;;;;5027311;28;20482;-48
2021/11/25 03:20:46;;;;;;;19.83;11.43;;;7.80;56.30;;;;;;5036681;28;20204;-47
2021/11/25 03:23:14;;;;;;;16.60;11.37;;;7.80;56.40;;;;;;5031404;28;20846;-46
2021/11/25 03:25:41;;;;;;;15.70;11.10;;;7.90;56.30;;;;;;5032085;28;20851;-48
2021/11/25 03:28:07;;;;;;;17.30;11.43;;;7.90;56.10;;;;;;5025614;28;20470;-47
2021/11/25 03:30:34;;;;;;;14.87;11.00;;;7.90;56.00;;;;;;5027614;28;20447;-48
2021/11/25 03:33:01;;;;;;;18.27;11.40;;;7.80;55.90;;;;;;5032624;28;20432;-48
2021/11/25 03:35:26;;;;;;;19.33;12.10;;;7.70;56.80;;;;;;5028835;28;20456;-47
2021/11/25 03:37:52;;;;;;;14.93;10.63;;;7.80;56.40;;;;;;5028771;28;20505;-50
2021/11/25 03:40:18;;;;;;;18.10;11.90;;;7.80;56.20;;;;;;5033257;28;20649;-48
2021/11/25 03:42:44;;;;;;;17.80;10.83;;;7.90;56.30;;;;;;5028763;28;20197;-47
2021/11/25 03:45:11;;;;;;;15.27;10.93;;;7.80;56.20;;;;;;5027193;28;20221;-49
2021/11/25 03:47:36;;;;;;;19.73;11.30;;;7.90;56.20;;;;;;5030683;28;20190;-49
2021/11/25 03:50:04;;;;;;;19.43;12.90;;;7.80;56.00;;;;;;5025188;28;20447;-49
2021/11/25 03:52:30;;;;;;;16.30;11.00;;;7.70;56.40;;;;;;5031718;28;20539;-46
2021/11/25 03:54:55;;;;;;;17.63;11.77;;;7.80;56.40;;;;;;5032320;28;20515;-48
2021/11/25 03:57:22;;;;;;;21.80;12.47;;;7.80;56.30;;;;;;5026571;28;20193;-49
2021/11/25 03:59:49;;;;;;;17.93;12.37;;;7.90;56.20;;;;;;5031972;28;20217;-47
2021/11/25 04:02:15;;;;;;;23.47;13.60;;;7.90;56.00;;;;;;5028065;28;20440;-51
2021/11/25 04:04:40;;;;;;;17.37;11.87;;;7.90;55.80;;;;;;5031877;28;20846;-47
2021/11/25 04:07:06;;;;;;;19.40;11.23;;;8.00;55.60;;;;;;5028670;28;20335;-48
2021/11/25 04:09:31;;;;;;;17.63;11.47;;;8.00;55.60;;;;;;5028422;28;20288;-48
2021/11/25 04:11:57;;;;;;;16.70;11.93;;;8.00;55.60;;;;;;5025511;28;20201;-47
2021/11/25 04:14:23;;;;;;;18.03;11.50;;;8.10;55.60;;;;;;5027029;28;20198;-48
2021/11/25 04:16:48;;;;;;;18.20;11.97;;;8.00;55.60;;;;;;5028950;28;20198;-49
2021/11/25 04:19:14;;;;;;;23.13;13.50;;;8.00;55.80;;;;;;5028827;28;20277;-49
2021/11/25 04:21:40;;;;;;;19.63;13.17;;;8.10;55.60;;;;;;5027270;28;20221;-50
2021/11/25 04:24:05;;;;;;;17.40;12.40;;;8.20;55.50;;;;;;5030694;28;20232;-48
2021/11/25 04:26:31;;;;;;;18.50;12.17;;;8.10;55.50;;;;;;5026235;28;20203;-48
2021/11/25 04:28:57;;;;;;;16.10;10.40;;;8.10;55.60;;;;;;5030282;28;20206;-47
2021/11/25 04:36:51;;;;;;;18.30;11.33;;;8.20;55.40;;;;;;5027787;28;20486;-49
2021/11/25 04:39:17;;;;;;;18.43;12.83;;;8.20;55.40;;;;;;5030693;28;20476;-48
2021/11/25 04:41:43;;;;;;;20.33;12.73;;;8.20;55.40;;;;;;5020285;28;20239;-47
2021/11/25 04:44:08;;;;;;;16.90;11.80;;;8.20;55.40;;;;;;5028450;28;20232;-47
2021/11/25 04:46:35;;;;;;;16.53;11.70;;;8.20;55.40;;;;;;5026487;28;20201;-47
2021/11/25 04:49:02;;;;;;;21.03;12.30;;;8.30;55.40;;;;;;5026126;28;20185;-49
2021/11/25 04:51:28;;;;;;;17.50;12.37;;;8.30;55.20;;;;;;5027419;28;20440;-47
2021/11/25 04:53:54;;;;;;;18.20;12.00;;;8.30;55.20;;;;;;5025155;28;20452;-50
2021/11/25 04:56:20;;;;;;;18.93;12.70;;;8.20;55.20;;;;;;5026964;28;20189;-47
2021/11/25 04:58:45;;;;;;;16.53;12.30;;;8.30;55.20;;;;;;5029035;28;20517;-47
2021/11/25 05:01:11;;;;;;;17.43;12.37;;;8.30;55.20;;;;;;5024821;28;20224;-48
2021/11/25 05:03:37;;;;;;;18.80;12.40;;;8.30;55.30;;;;;;5022687;28;20197;-49
2021/11/25 05:06:03;;;;;;;18.93;12.67;;;8.30;55.30;;;;;;5028235;28;20280;-51
2021/11/25 05:08:29;;;;;;;19.90;12.70;;;8.30;55.40;;;;;;5026423;28;20625;-48
2021/11/25 05:10:55;;;;;;;18.03;12.10;;;8.30;55.40;;;;;;5025444;28;20530;-48
2021/11/25 05:13:20;;;;;;;20.33;12.60;;;8.30;55.40;;;;;;5025970;28;20611;-50
2021/11/25 05:15:46;;;;;;;21.60;12.47;;;8.30;55.60;;;;;;5023373;28;20185;-50
2021/11/25 05:18:12;;;;;;;20.50;13.37;;;8.30;55.70;;;;;;5025820;28;20225;-47
2021/11/25 05:20:38;;;;;;;19.93;12.83;;;8.20;55.60;;;;;;5026218;28;20193;-50
2021/11/25 05:23:04;;;;;;;23.20;12.97;;;8.20;55.40;;;;;;5026474;28;20450;-50
2021/11/25 05:25:30;;;;;;;18.70;13.10;;;8.00;55.40;;;;;;5027343;28;20483;-47
2021/11/25 05:27:56;;;;;;;18.53;12.80;;;8.10;55.70;;;;;;5022053;28;20463;-48
2021/11/25 05:30:22;;;;;;;18.60;13.20;;;8.00;55.90;;;;;;5025382;28;20196;-51
2021/11/25 05:32:48;;;;;;;19.83;13.50;;;8.10;56.40;;;;;;5022187;28;20233;-49
2021/11/25 05:35:15;;;;;;;24.73;12.93;;;8.20;55.70;;;;;;5022062;28;20448;-47
2021/11/25 05:37:42;;;;;;;20.97;14.80;;;8.30;55.40;;;;;;5023435;28;20445;-49
2021/11/25 05:40:10;;;;;;;21.50;14.53;;;8.30;55.20;;;;;;5024612;28;20444;-48
2021/11/25 05:42:36;;;;;;;21.00;13.80;;;8.40;55.00;;;;;;5027935;28;20452;-48
2021/11/25 05:45:06;;;;;;;24.60;13.10;;;8.50;54.80;;;;;;5027154;28;20484;-50
2021/11/25 05:47:34;;;;;;;24.60;14.97;;;8.50;54.70;;;;;;5025612;28;20201;-48
2021/11/25 05:50:00;;;;;;;21.77;13.67;;;8.50;54.70;;;;;;5024779;28;20444;-48
2021/11/25 05:52:26;;;;;;;22.07;14.03;;;8.50;54.80;;;;;;5023639;28;20490;-50
2021/11/25 05:54:52;;;;;;;20.90;13.80;;;8.50;54.80;;;;;;5026934;28;20440;-48
2021/11/25 05:57:18;;;;;;;20.27;13.10;;;8.50;54.90;;;;;;5022864;28;20235;-47
2021/11/25 05:59:43;;;;;;;20.03;12.60;;;8.50;54.90;;;;;;5023274;28;20609;-47
2021/11/25 06:02:11;;;;;;;19.17;13.00;;;8.50;55.00;;;;;;5022276;28;20185;-48
2021/11/25 06:04:36;;;;;;;22.53;13.67;;;8.50;55.00;;;;;;5028107;28;20247;-50
2021/11/25 06:07:02;;;;;;;23.73;14.23;;;8.60;55.00;;;;;;5020697;28;20444;-52
2021/11/25 06:09:28;;;;;;;23.57;12.93;;;8.60;54.80;;;;;;5027400;28;20307;-47
2021/11/25 06:11:54;;;;;;;18.47;11.00;;;8.60;54.90;;;;;;5027954;28;20448;-49
2021/11/25 06:14:19;;;;;;;18.83;9.10;;;8.40;55.10;;;;;;5023315;28;21642;-47
2021/11/25 06:16:46;;;;;;;20.60;12.77;;;8.70;58.20;;;;;;5027291;28;20296;-48
2021/11/25 06:19:11;;;;;;;21.60;13.90;;;9.10;59.50;;;;;;5028677;28;20233;-52
2021/11/25 06:21:37;;;;;;;19.33;12.60;;;9.50;58.80;;;;;;5021652;28;20523;-48
2021/11/25 06:24:03;;;;;;;19.27;13.97;;;9.80;57.60;;;;;;5023784;28;20213;-49
2021/11/25 06:26:29;;;;;;;21.23;13.80;;;10.00;55.40;;;;;;5022375;28;20653;-47
2021/11/25 06:28:55;;;;;;;21.37;14.00;;;10.30;54.40;;;;;;5022784;28;20456;-48
2021/11/25 06:31:22;;;;;;;22.30;14.13;;;10.40;53.40;;;;;;5021133;28;20198;-50
2021/11/25 06:33:48;;;;;;;19.67;14.40;;;10.60;52.80;;;;;;5022138;28;20890;-48
2021/11/25 06:36:13;;;;;;;23.10;16.53;;;10.70;52.20;;;;;;5026332;28;20475;-47
2021/11/25 06:38:39;;;;;;;22.90;15.67;;;10.90;52.30;;;;;;5027904;28;20271;-48
2021/11/25 06:41:07;;;;;;;17.17;13.60;;;10.90;50.90;;;;;;5029352;28;20657;-47
2021/11/25 06:43:33;;;;;;;20.20;14.33;;;10.90;50.00;;;;;;5028821;28;20197;-47
2021/11/25 06:45:59;;;;;;;23.20;14.63;;;10.90;49.40;;;;;;5024507;28;20639;-47
2021/11/25 06:48:25;;;;;;;20.27;14.03;;;10.90;49.30;;;;;;5022352;28;20867;-47
2021/11/25 06:50:50;;;;;;;21.60;14.40;;;11.00;49.10;;;;;;5022101;28;20200;-48
2021/11/25 06:53:16;;;;;;;24.70;15.17;;;11.00;49.10;;;;;;5025305;28;20561;-47
2021/11/25 06:55:42;;;;;;;22.20;15.27;;;11.10;48.80;;;;;;5023623;28;20189;-49
2021/11/25 06:58:08;;;;;;;21.37;15.23;;;11.00;48.00;;;;;;5023332;28;20211;-49
2021/11/25 07:00:34;;;;;;;25.80;15.67;;;11.00;48.50;;;;;;5020599;28;20440;-47
2021/11/25 07:02:59;;;;;;;22.27;14.93;;;11.00;48.00;;;;;;5024140;28;20201;-48
2021/11/25 07:05:26;;;;;;;19.87;14.40;;;11.00;48.30;;;;;;5025312;28;20240;-48
2021/11/25 07:07:53;;;;;;;21.73;15.17;;;11.10;48.00;;;;;;5025926;28;20189;-49
2021/11/25 07:10:19;;;;;;;21.90;15.10;;;11.10;48.00;;;;;;5020689;28;20458;-48
2021/11/25 07:12:46;;;;;;;21.10;14.43;;;11.10;48.10;;;;;;5020336;28;20443;-47
2021/11/25 07:15:17;;;;;;;22.37;15.10;;;11.10;47.80;;;;;;5019598;28;21437;-49
2021/11/25 07:17:44;;;;;;;23.73;15.17;;;11.10;47.50;;;;;;5026382;28;20499;-47
2021/11/25 07:20:10;;;;;;;20.47;14.23;;;10.90;47.50;;;;;;5027013;28;20444;-47
2021/11/25 07:22:38;;;;;;;22.00;14.57;;;10.70;47.80;;;;;;5019693;28;20501;-49
2021/11/25 07:25:05;;;;;;;25.00;15.10;;;10.50;48.30;;;;;;5023078;28;20247;-50
2021/11/25 07:27:30;;;;;;;21.90;15.60;;;10.30;48.90;;;;;;5020394;28;20483;-48
2021/11/25 07:29:56;;;;;;;20.47;14.43;;;10.20;49.40;;;;;;5013559;28;23508;-48
2021/11/25 07:32:22;;;;;;;27.10;17.10;;;10.00;49.80;;;;;;5016800;28;20208;-50
2021/11/25 07:34:47;;;;;;;22.50;15.97;;;9.90;50.90;;;;;;5020165;28;20182;-48
2021/11/25 07:37:13;;;;;;;25.07;16.43;;;9.80;51.40;;;;;;5017137;28;20197;-48
2021/11/25 07:39:39;;;;;;;21.07;13.77;;;9.70;51.40;;;;;;5022902;28;20549;-48
2021/11/25 07:42:04;;;;;;;21.20;13.80;;;9.60;51.70;;;;;;5019369;28;20750;-48
2021/11/25 07:44:30;;;;;;;24.43;14.83;;;9.40;51.80;;;;;;5017894;28;20245;-47
2021/11/25 07:46:56;;;;;;;25.47;13.70;;;9.40;52.20;;;;;;5016701;28;20201;-50
2021/11/25 07:49:22;;;;;;;24.13;16.70;;;9.30;52.30;;;;;;5020013;28;20189;-48
2021/11/25 07:51:48;;;;;;;22.70;14.77;;;9.30;52.60;;;;;;5018171;28;20201;-48
2021/11/25 07:54:14;;;;;;;20.57;14.00;;;9.30;52.60;;;;;;5024437;28;20994;-48
2021/11/25 07:56:41;;;;;;;25.77;14.97;;;9.20;52.70;;;;;;5019609;28;20224;-49
2021/11/25 07:59:06;;;;;;;21.53;15.13;;;9.20;53.00;;;;;;5022530;28;20243;-49
2021/11/25 08:01:33;;;;;;;20.80;15.13;;;9.20;52.70;;;;;;5022955;28;20469;-47
2021/11/25 08:03:59;;;;;;;19.67;13.80;;;9.30;52.60;;;;;;5020816;28;20719;-48
2021/11/25 08:06:25;;;;;;;20.03;14.17;;;9.30;52.50;;;;;;5023172;28;20432;-49
2021/11/25 08:08:50;;;;;;;22.83;14.77;;;9.20;52.30;;;;;;5025309;28;20240;-49
2021/11/25 08:11:16;;;;;;;21.40;14.27;;;9.30;52.20;;;;;;5026495;28;20451;-48
2021/11/25 08:13:42;;;;;;;22.90;14.43;;;9.30;52.00;;;;;;5019577;28;20193;-51
2021/11/25 08:16:10;;;;;;;21.30;15.07;;;9.30;51.90;;;;;;5023231;28;20755;-47
2021/11/25 08:18:35;;;;;;;22.70;14.23;;;9.30;51.90;;;;;;5022272;28;20224;-48
2021/11/25 08:21:01;;;;;;;22.20;14.50;;;9.20;51.90;;;;;;5020182;28;20456;-48
2021/11/25 08:23:27;;;;;;;21.47;14.37;;;9.10;52.60;;;;;;5021703;28;20198;-49
2021/11/25 08:25:53;;;;;;;23.53;15.50;;;9.00;52.50;;;;;;5023530;28;20225;-53
2021/11/25 08:28:19;;;;;;;24.03;15.50;;;9.00;52.80;;;;;;5022140;28;20463;-48
2021/11/25 08:30:45;;;;;;;22.63;14.67;;;9.00;52.80;;;;;;5027042;28;20661;-49
2021/11/25 08:33:10;;;;;;;22.73;15.87;;;9.10;52.80;;;;;;5028412;28;20459;-49
2021/11/25 08:35:36;;;;;;;21.67;15.10;;;9.20;52.60;;;;;;5022631;28;20200;-54
2021/11/25 08:38:02;;;;;;;21.27;14.10;;;9.30;52.40;;;;;;5026998;28;20189;-50
2021/11/25 08:40:29;;;;;;;25.17;15.53;;;9.30;52.20;;;;;;5023160;28;20204;-52
2021/11/25 08:42:55;;;;;;;24.37;14.87;;;9.30;52.10;;;;;;5025206;28;20535;-50
2021/11/25 08:45:21;;;;;;;23.57;14.23;;;9.40;52.60;;;;;;5029939;28;20483;-48
2021/11/25 08:47:47;;;;;;;27.60;14.73;;;9.40;51.90;;;;;;5030398;28;20808;-48
2021/11/25 08:50:13;;;;;;;23.93;14.30;;;9.40;51.50;;;;;;5031665;28;20440;-53
2021/11/25 08:52:40;;;;;;;20.57;12.97;;;9.40;51.50;;;;;;5028970;28;20185;-49
2021/11/25 08:55:06;;;;;;;20.60;14.33;;;9.50;51.40;;;;;;5031619;28;20494;-53
2021/11/25 08:57:34;;;;;;;21.67;14.73;;;9.50;51.10;;;;;;5029107;28;20476;-48
2021/11/25 08:59:59;;;;;;;23.23;14.97;;;9.50;51.70;;;;;;5032499;28;20428;-52
2021/11/25 09:02:25;;;;;;;20.97;13.90;;;9.40;51.30;;;;;;5029627;28;20547;-47
2021/11/25 09:04:51;;;;;;;21.97;14.20;;;9.40;51.50;;;;;;5030452;28;20233;-53
2021/11/25 09:07:17;;;;;;;21.33;13.83;;;9.40;51.50;;;;;;5029359;28;20228;-50
2021/11/25 09:09:42;;;;;;;20.70;13.50;;;9.40;51.50;;;;;;5029472;28;20190;-51
2021/11/25 09:12:08;;;;;;;22.53;15.50;;;9.40;51.30;;;;;;5028807;28;20577;-52
2021/11/25 09:14:34;;;;;;;24.23;15.63;;;9.40;51.70;;;;;;5028315;28;20193;-50
2021/11/25 09:17:00;;;;;;;25.03;14.63;;;9.40;51.50;;;;;;5029939;28;20451;-50
2021/11/25 09:19:26;;;;;;;23.93;14.93;;;9.40;51.50;;;;;;5030836;28;20436;-49
2021/11/25 09:21:52;;;;;;;24.33;15.27;;;9.40;51.80;;;;;;5029466;28;20351;-48
2021/11/25 09:24:18;;;;;;;23.80;15.53;;;9.40;51.50;;;;;;5021719;28;20278;-51
2021/11/25 09:26:44;;;;;;;23.47;15.20;;;9.50;51.30;;;;;;5019104;28;20238;-47
2021/11/25 09:29:11;;;;;;;26.00;16.07;;;9.50;51.20;;;;;;5036540;28;20420;-47
2021/11/25 09:31:37;;;;;;;23.30;14.47;;;9.50;51.20;;;;;;5025008;28;20472;-50
2021/11/25 09:34:04;;;;;;;25.47;15.10;;;9.60;51.20;;;;;;5032815;28;20462;-49
2021/11/25 09:36:31;;;;;;;28.57;17.73;;;9.60;51.30;;;;;;5020733;28;20428;-50
2021/11/25 09:38:58;;;;;;;23.77;15.97;;;9.60;51.60;;;;;;5026935;28;20509;-46
2021/11/25 09:41:23;;;;;;;28.70;17.40;;;9.60;51.70;;;;;;5026971;28;20443;-50
2021/11/25 09:43:49;;;;;;;20.97;14.50;;;9.60;51.30;;;;;;5031339;28;20440;-47
2021/11/25 09:46:15;;;;;;;26.10;16.33;;;9.60;51.10;;;;;;5029289;28;20197;-46
2021/11/25 09:48:41;;;;;;;27.07;17.23;;;9.60;51.10;;;;;;5028266;28;20699;-49
2021/11/25 09:51:08;;;;;;;28.07;18.63;;;9.60;51.30;;;;;;5030667;28;20951;-51
2021/11/25 09:53:36;;;;;;;22.13;15.40;;;9.40;51.70;;;;;;5027747;28;20258;-45
2021/11/25 09:56:04;;;;;;;24.53;16.37;;;9.50;52.00;;;;;;5020989;28;20444;-46
2021/11/25 09:58:32;;;;;;;22.80;14.20;;;9.50;52.00;;;;;;5027444;28;20472;-47
2021/11/25 10:01:07;;;;;;;21.73;15.33;;;9.60;51.70;;;;;;5030142;28;20568;-48
2021/11/25 10:03:34;;;;;;;19.30;13.17;;;9.70;51.50;;;;;;5026591;28;20443;-48
2021/11/25 10:06:01;;;;;;;21.20;13.93;;;9.70;51.10;;;;;;5030108;28;20475;-47
2021/11/25 10:08:48;;;;;;;23.87;15.20;;;9.70;50.90;;;;;;5030595;28;20522;-48
2021/11/25 10:11:23;;;;;;;23.23;14.17;;;9.70;50.70;;;;;;5027298;28;20494;-46
2021/11/25 10:13:57;;;;;;;24.00;14.13;;;9.70;50.60;;;;;;5027980;28;20497;-50
2021/11/25 10:16:29;;;;;;;20.60;14.40;;;9.70;50.50;;;;;;5026841;28;20439;-48
2021/11/25 10:19:19;;;;;;;24.77;15.00;;;9.70;50.50;;;;;;5033298;28;20475;-50
2021/11/25 10:21:56;;;;;;;24.97;15.60;;;9.70;50.60;;;;;;5026206;28;20797;-48
2021/11/25 10:24:45;;;;;;;23.37;14.87;;;9.80;50.60;;;;;;5029047;28;20471;-48
2021/11/25 10:27:18;;;;;;;24.17;15.23;;;9.80;50.60;;;;;;5023754;28;20562;-50
2021/11/25 10:29:45;;;;;;;23.37;15.07;;;9.80;50.40;;;;;;5030635;28;20436;-50
2021/11/25 10:32:19;;;;;;;23.87;15.53;;;9.80;50.20;;;;;;5029018;28;20441;-52
2021/11/25 10:37:59;;;;;;;23.13;14.40;;;9.70;50.40;;;;;;5026496;28;20451;-50
2021/11/25 10:40:27;;;;;;;21.73;14.73;;;9.70;50.30;;;;;;5027265;28;20451;-48
2021/11/25 10:42:53;;;;;;;22.20;15.50;;;9.70;50.20;;;;;;5023813;28;20487;-50
2021/11/25 10:45:20;;;;;;;27.70;17.63;;;9.70;50.20;;;;;;5029493;28;20983;-47
2021/11/25 10:48:00;;;;;;;25.93;15.73;;;9.80;50.50;;;;;;5028617;28;20200;-47
2021/11/25 10:50:28;;;;;;;25.10;15.73;;;9.60;50.80;;;;;;5041273;28;20628;-48
2021/11/25 10:53:05;;;;;;;21.57;14.27;;;9.60;50.90;;;;;;5028494;28;21333;-47
2021/11/25 10:55:31;;;;;;;22.83;14.57;;;9.60;50.90;;;;;;5029875;28;20435;-46
2021/11/25 10:58:01;;;;;;;24.57;16.10;;;9.60;50.80;;;;;;5028356;28;21296;-46
2021/11/25 11:00:42;;;;;;;21.07;14.20;;;9.70;50.50;;;;;;5029146;28;20966;-50
2021/11/25 11:03:23;;;;;;;21.03;14.83;;;9.80;50.90;;;;;;5029941;28;20435;-47
2021/11/25 11:05:58;;;;;;;23.00;14.73;;;9.80;50.40;;;;;;5028623;28;20587;-47
2021/11/25 11:08:44;;;;;;;23.13;15.87;;;9.80;50.40;;;;;;5030360;28;20795;-48
2021/11/25 11:11:11;;;;;;;22.77;14.80;;;9.80;50.20;;;;;;5024898;28;20432;-48
2021/11/25 11:14:00;;;;;;;21.93;14.37;;;9.90;50.30;;;;;;5028325;28;21007;-47
2021/11/25 11:16:29;;;;;;;22.87;14.40;;;9.90;50.10;;;;;;5028098;28;20494;-48
2021/11/25 11:18:57;;;;;;;24.03;14.70;;;9.80;50.00;;;;;;5022772;28;20479;-49
2021/11/25 11:21:31;;;;;;;23.07;14.63;;;9.90;50.30;;;;;;5022306;28;20436;-47
2021/11/25 11:24:00;;;;;;;27.07;15.63;;;9.90;50.10;;;;;;5027680;28;20489;-49
2021/11/25 11:26:26;;;;;;;22.67;14.70;;;9.80;49.90;;;;;;5026145;28;20440;-47
2021/11/25 11:28:52;;;;;;;27.67;16.57;;;9.60;50.00;;;;;;5029936;28;20447;-48
2021/11/25 11:31:20;;;;;;;24.40;15.97;;;9.60;50.40;;;;;;5033127;28;20424;-47
2021/11/25 11:33:49;;;;;;;23.37;15.23;;;9.50;50.80;;;;;;5031348;28;20240;-47
2021/11/25 11:36:15;;;;;;;22.73;14.40;;;9.60;50.90;;;;;;5031681;28;20872;-46
2021/11/25 11:38:42;;;;;;;24.83;16.60;;;9.70;50.80;;;;;;5028981;28;20447;-50
2021/11/25 11:41:09;;;;;;;24.73;16.93;;;9.70;50.60;;;;;;5033602;28;20448;-46
2021/11/25 11:43:36;;;;;;;25.57;15.40;;;9.80;50.50;;;;;;5033626;28;20467;-50
2021/11/25 11:46:02;;;;;;;28.00;15.60;;;9.90;50.60;;;;;;5033405;28;21002;-48
2021/11/25 11:48:31;;;;;;;25.50;16.47;;;9.90;50.20;;;;;;5033578;28;20449;-46
2021/11/25 11:50:57;;;;;;;25.00;15.90;;;9.90;50.10;;;;;;5031834;28;20385;-46
2021/11/25 11:53:27;;;;;;;23.37;15.30;;;10.00;49.20;;;;;;5028732;28;20891;-51
2021/11/25 11:55:59;;;;;;;25.07;15.20;;;10.00;49.30;;;;;;5033368;28;20447;-47
2021/11/25 11:58:30;;;;;;;23.90;15.13;;;10.00;49.10;;;;;;5031682;28;20531;-50
2021/11/25 12:01:07;;;;;;;22.40;15.30;;;10.10;49.10;;;;;;5032196;28;21184;-46
2021/11/25 12:03:54;;;;;;;27.80;17.17;;;10.10;49.20;;;;;;5031650;28;20490;-47
2021/11/25 12:06:48;;;;;;;26.00;17.00;;;10.20;49.40;;;;;;5032081;28;20582;-46
2021/11/25 12:09:22;;;;;;;27.40;15.80;;;10.20;49.30;;;;;;5027660;28;20578;-47
2021/11/25 12:11:54;;;;;;;23.17;16.50;;;10.30;49.30;;;;;;5029213;28;20500;-46
2021/11/25 12:14:24;;;;;;;22.90;15.33;;;10.30;49.20;;;;;;5029965;28;20494;-46
2021/11/25 12:17:08;;;;;;;26.87;15.60;;;10.30;48.90;;;;;;5026524;28;21192;-48
2021/11/25 12:19:42;;;;;;;28.13;17.20;;;10.20;48.80;;;;;;5029720;28;20483;-49
2021/11/25 12:22:14;;;;;;;22.10;14.63;;;10.30;48.90;;;;;;5025625;28;20498;-47
2021/11/25 12:24:51;;;;;;;26.93;17.33;;;10.20;49.10;;;;;;5027911;28;20519;-48
2021/11/25 12:27:24;;;;;;;25.80;17.80;;;10.20;49.40;;;;;;5028737;28;20459;-49
2021/11/25 12:32:28;;;;;;;26.70;17.53;;;10.20;49.30;;;;;;5025938;28;20467;-47
2021/11/25 12:35:12;;;;;;;27.60;17.77;;;10.20;48.90;;;;;;5031161;28;20460;-47
2021/11/25 12:37:47;;;;;;;24.97;15.97;;;10.20;49.00;;;;;;5028177;28;20453;-48
2021/11/25 12:40:16;;;;;;;24.67;16.30;;;10.20;49.00;;;;;;5027287;28;20439;-48
2021/11/25 12:42:42;;;;;;;24.00;15.80;;;10.20;49.00;;;;;;5025392;28;20846;-49
2021/11/25 12:45:22;;;;;;;25.40;15.83;;;10.20;48.70;;;;;;5028688;28;20500;-46
2021/11/25 12:48:09;;;;;;;24.73;16.10;;;10.20;48.90;;;;;;5027530;28;21000;-49